createdAt,value
2022-12-06T07:48:13.953Z,3.79
2022-12-06T07:49:13.943Z,3.50
2022-12-06T07:50:17.800Z,3.09
2022-12-06T07:51:13.921Z,3.59
2022-12-06T07:52:13.922Z,3.00
2022-12-06T07:53:13.910Z,3.50
2022-12-06T07:54:13.912Z,3.90
2022-12-06T07:55:13.885Z,2.70
2022-12-06T07:56:13.877Z,3.00
2022-12-06T07:57:13.857Z,2.90
2022-12-06T07:58:13.847Z,3.00
2022-12-06T07:59:13.842Z,3.09
2022-12-06T08:00:13.825Z,2.59
2022-12-06T08:01:13.842Z,2.50
2022-12-06T08:02:13.810Z,2.59
2022-12-06T08:03:13.798Z,2.50
2022-12-06T08:04:13.854Z,2.50
2022-12-06T08:05:13.779Z,2.59
2022-12-06T08:06:13.763Z,2.50
2022-12-06T08:07:13.754Z,2.40
2022-12-06T08:08:13.818Z,2.29
2022-12-06T08:09:13.737Z,2.50
2022-12-06T08:10:13.775Z,2.70
2022-12-06T08:11:13.715Z,2.40
2022-12-06T08:12:13.701Z,2.29
2022-12-06T08:13:13.694Z,2.50
2022-12-06T08:14:13.682Z,3.59
2022-12-06T08:15:13.670Z,2.40
2022-12-06T08:16:13.727Z,2.79
2022-12-06T08:17:13.648Z,2.29
2022-12-06T08:18:13.637Z,2.20
2022-12-06T08:19:13.627Z,3.00
2022-12-06T08:20:13.622Z,2.29
2022-12-06T08:21:13.606Z,3.09
2022-12-06T08:22:13.600Z,2.29
2022-12-06T08:23:13.592Z,2.40
2022-12-06T08:24:13.576Z,2.40
2022-12-06T08:25:13.569Z,2.09
2022-12-06T08:26:13.580Z,2.20
2022-12-06T08:27:13.548Z,2.90
2022-12-06T08:28:13.535Z,2.20
2022-12-06T08:29:13.521Z,2.09
2022-12-06T08:30:13.510Z,2.29
2022-12-06T08:31:13.589Z,3.20
2022-12-06T08:32:13.494Z,3.00
2022-12-06T08:33:13.483Z,2.59
2022-12-06T08:34:13.475Z,2.29
2022-12-06T08:35:13.458Z,2.50
2022-12-06T08:36:13.447Z,2.29
2022-12-06T08:37:13.436Z,1.79
2022-12-06T08:38:13.426Z,1.79
2022-12-06T08:39:13.419Z,1.79
2022-12-06T08:40:13.411Z,2.09
2022-12-06T08:41:13.394Z,1.79
2022-12-06T08:42:13.405Z,1.79
2022-12-06T08:43:13.373Z,1.79
2022-12-06T08:44:13.364Z,2.00
2022-12-06T08:45:13.353Z,3.20
2022-12-06T08:46:13.392Z,3.29
2022-12-06T08:47:13.335Z,1.79
2022-12-06T08:48:13.325Z,2.79
2022-12-06T08:49:13.310Z,2.00
2022-12-06T08:50:13.302Z,2.79
2022-12-06T08:52:13.281Z,2.20
2022-12-06T08:53:13.275Z,2.50
2022-12-06T08:54:13.260Z,1.79
2022-12-06T08:55:13.247Z,3.00
2022-12-06T08:56:13.236Z,3.59
2022-12-06T08:57:13.229Z,2.00
2022-12-06T08:58:13.237Z,2.90
2022-12-06T08:59:13.208Z,2.59
2022-12-06T09:00:13.199Z,2.00
2022-12-06T09:01:13.210Z,1.60
2022-12-06T09:02:13.303Z,1.60
2022-12-06T09:03:13.169Z,2.40
2022-12-06T09:04:13.175Z,2.29
2022-12-06T09:05:13.147Z,1.50
2022-12-06T09:06:13.134Z,2.70
2022-12-06T09:07:13.124Z,1.50
2022-12-06T09:08:13.210Z,1.60
2022-12-06T09:09:13.102Z,1.90
2022-12-06T09:10:13.095Z,1.90
2022-12-06T09:11:13.083Z,1.70
2022-12-06T09:12:13.072Z,1.90
2022-12-06T09:13:13.060Z,1.90
2022-12-06T09:14:17.834Z,1.90
2022-12-06T09:15:14.063Z,1.70
2022-12-06T09:16:13.106Z,2.00
2022-12-06T09:17:13.018Z,2.20
2022-12-06T09:18:13.016Z,1.60
2022-12-06T09:19:12.997Z,1.90
2022-12-06T09:20:13.291Z,1.50
2022-12-06T09:21:12.976Z,2.40
2022-12-06T09:22:12.966Z,1.79
2022-12-06T09:23:12.957Z,2.00
2022-12-06T09:24:12.943Z,1.79
2022-12-06T09:25:12.936Z,2.09
2022-12-06T09:26:12.923Z,3.50
2022-12-06T09:27:12.911Z,2.50
2022-12-06T09:28:12.903Z,2.40
2022-12-06T09:29:12.901Z,1.60
2022-12-06T09:30:12.908Z,3.29
2022-12-06T09:31:12.973Z,4.90
2022-12-06T09:32:12.865Z,8.00
2022-12-06T09:33:12.849Z,8.69
2022-12-06T09:34:12.845Z,8.00
2022-12-06T09:35:15.612Z,8.50
2022-12-06T09:36:12.822Z,8.00
2022-12-06T09:37:12.812Z,9.10
2022-12-06T09:38:12.804Z,8.50
2022-12-06T09:39:12.791Z,7.80
2022-12-06T09:40:12.782Z,8.19
2022-12-06T09:41:12.773Z,8.89
2022-12-06T09:42:12.764Z,7.69
2022-12-06T09:43:12.752Z,8.60
2022-12-06T09:44:12.747Z,9.69
2022-12-06T09:45:12.727Z,8.00
2022-12-06T09:46:12.813Z,7.69
2022-12-06T09:47:12.709Z,7.59
2022-12-06T09:48:12.700Z,9.50
2022-12-06T09:49:12.689Z,12.50
2022-12-06T09:50:12.675Z,10.10
2022-12-06T09:51:12.667Z,9.80
2022-12-06T09:52:12.659Z,13.60
2022-12-06T09:53:12.896Z,16.70
2022-12-06T09:54:12.637Z,12.60
2022-12-06T09:55:12.625Z,13.39
2022-12-06T09:56:12.612Z,11.00
2022-12-06T09:57:12.606Z,9.80
2022-12-06T09:58:12.594Z,12.60
2022-12-06T09:59:12.582Z,20.79
2022-12-06T10:00:15.477Z,14.10
2022-12-06T10:01:13.586Z,10.39
2022-12-06T10:02:12.677Z,10.69
2022-12-06T10:03:12.617Z,9.60
2022-12-06T10:04:12.529Z,9.30
2022-12-06T10:05:12.525Z,9.89
2022-12-06T10:06:12.508Z,13.39
2022-12-06T10:07:12.502Z,11.00
2022-12-06T10:08:12.761Z,11.00
2022-12-06T10:09:12.640Z,10.30
2022-12-06T10:10:12.472Z,9.30
2022-12-06T10:11:12.461Z,12.80
2022-12-06T10:12:12.449Z,13.89
2022-12-06T10:13:12.438Z,12.30
2022-12-06T10:14:12.432Z,12.69
2022-12-06T10:15:12.423Z,10.30
2022-12-06T10:16:12.503Z,10.10
2022-12-06T10:17:12.396Z,10.50
2022-12-06T10:18:12.413Z,9.50
2022-12-06T10:19:12.376Z,10.50
2022-12-06T10:20:12.366Z,8.60
2022-12-06T10:21:12.355Z,8.69
2022-12-06T10:22:12.345Z,12.00
2022-12-06T10:23:12.340Z,11.50
2022-12-06T10:25:12.904Z,12.89
2022-12-06T10:25:14.316Z,11.19
2022-12-06T10:26:14.305Z,11.10
2022-12-06T10:27:14.292Z,11.10
2022-12-06T10:28:14.285Z,13.89
2022-12-06T10:29:14.270Z,7.59
2022-12-06T10:30:37.639Z,10.00
2022-12-06T10:31:14.287Z,7.50
2022-12-06T10:32:14.245Z,7.30
2022-12-06T10:33:14.256Z,7.09
2022-12-06T10:34:14.225Z,7.69
2022-12-06T10:35:14.215Z,8.19
2022-12-06T10:36:14.206Z,9.19
2022-12-06T10:38:35.475Z,9.39
2022-12-06T10:38:36.879Z,9.80
2022-12-06T11:00:28.305Z,8.80
2022-12-06T14:49:57.445Z,6.90
2022-12-06T14:50:58.839Z,6.19
2022-12-06T14:53:16.658Z,7.30
2022-12-06T14:54:18.039Z,7.90
2022-12-06T14:55:18.081Z,5.80
2022-12-06T14:56:53.408Z,6.00
2022-12-06T14:57:18.010Z,6.59
2022-12-06T14:58:17.988Z,5.69
2022-12-06T14:59:33.417Z,6.80
2022-12-06T15:00:26.647Z,6.59
2022-12-06T15:01:18.977Z,7.40
2022-12-06T15:02:17.947Z,7.50
2022-12-06T15:03:18.074Z,5.90
2022-12-06T15:04:18.049Z,8.10
2022-12-06T15:05:17.945Z,7.00
2022-12-06T15:06:17.909Z,7.69
2022-12-06T15:07:17.902Z,10.60
2022-12-06T15:08:18.081Z,9.39
2022-12-06T15:09:17.877Z,10.60
2022-12-06T15:10:17.866Z,9.89
2022-12-06T15:11:17.857Z,7.90
2022-12-06T15:12:17.847Z,8.10
2022-12-06T15:13:17.835Z,9.39
2022-12-06T15:14:17.826Z,8.19
2022-12-06T15:15:17.818Z,8.30
2022-12-06T15:16:17.906Z,10.00
2022-12-06T15:17:17.799Z,9.00
2022-12-06T15:18:17.819Z,9.39
2022-12-06T15:19:17.780Z,9.00
2022-12-06T15:20:17.770Z,9.10
2022-12-06T15:21:17.777Z,10.80
2022-12-06T15:22:24.294Z,9.80
2022-12-06T15:23:18.761Z,9.69
2022-12-06T15:24:17.726Z,9.80
2022-12-06T15:25:17.711Z,9.60
2022-12-06T15:26:17.701Z,9.89
2022-12-06T15:27:17.694Z,14.00
2022-12-06T15:28:19.867Z,13.39
2022-12-06T15:29:17.672Z,17.20
2022-12-06T15:30:17.664Z,13.89
2022-12-06T15:31:17.726Z,12.80
2022-12-06T15:32:17.645Z,13.89
2022-12-06T15:33:17.630Z,12.80
2022-12-06T15:34:17.623Z,13.60
2022-12-06T15:36:17.601Z,13.69
2022-12-06T15:38:18.604Z,13.60
2022-12-06T15:39:17.570Z,14.69
2022-12-06T15:40:17.559Z,12.39
2022-12-06T15:41:17.549Z,11.89
2022-12-06T15:42:17.540Z,8.10
2022-12-06T15:43:17.526Z,7.80
2022-12-06T15:44:17.516Z,7.90
2022-12-06T15:45:17.507Z,9.19
2022-12-06T15:46:17.605Z,9.10
2022-12-06T15:47:17.484Z,9.60
2022-12-06T15:48:17.471Z,14.10
2022-12-06T15:49:17.462Z,10.50
2022-12-06T15:50:17.454Z,10.89
2022-12-06T15:51:20.603Z,11.80
2022-12-06T15:52:17.431Z,13.89
2022-12-06T15:53:17.447Z,9.39
2022-12-06T15:54:17.409Z,10.80
2022-12-06T15:55:17.402Z,11.80
2022-12-06T15:56:17.390Z,10.30
2022-12-06T15:57:17.381Z,11.10
2022-12-06T15:58:17.367Z,10.69
2022-12-06T15:59:17.356Z,12.50
2022-12-06T16:00:17.347Z,10.10
2022-12-06T16:01:17.338Z,10.80
2022-12-06T16:02:17.488Z,9.69
2022-12-06T16:03:17.409Z,11.30
2022-12-06T16:04:17.304Z,8.19
2022-12-06T16:05:17.300Z,9.30
2022-12-06T16:06:17.290Z,8.60
2022-12-06T16:07:17.274Z,8.80
2022-12-06T16:08:17.505Z,9.30
2022-12-06T16:09:17.277Z,10.30
2022-12-06T16:10:22.151Z,8.80
2022-12-06T16:11:17.232Z,10.00
2022-12-06T16:12:17.223Z,9.39
2022-12-06T16:13:17.211Z,8.80
2022-12-06T16:14:17.204Z,9.30
2022-12-06T16:15:17.194Z,11.19
2022-12-06T16:16:17.245Z,10.69
2022-12-06T16:17:17.173Z,9.60
2022-12-06T16:18:17.162Z,8.69
2022-12-06T16:19:17.153Z,9.30
2022-12-06T16:20:17.137Z,8.50
2022-12-06T16:22:17.123Z,11.89
2022-12-06T16:23:17.109Z,9.10
2022-12-06T16:29:17.160Z,9.19
2022-12-06T16:30:17.037Z,9.19
2022-12-06T16:36:16.974Z,9.39
2022-12-06T16:37:16.965Z,10.50
2022-12-06T16:38:16.954Z,10.50
2022-12-06T16:39:16.999Z,10.30
2022-12-06T17:43:16.287Z,18.10
2022-12-06T17:44:16.276Z,20.00
2022-12-06T17:45:18.646Z,21.20
2022-12-06T17:46:16.301Z,17.89
2022-12-06T18:20:15.910Z,15.69
2022-12-06T19:44:15.053Z,20.70
2022-12-06T19:45:15.038Z,110.50
2022-12-06T19:46:15.133Z,142.50
2022-12-06T19:47:15.021Z,57.20
2022-12-06T19:48:15.010Z,31.50
2022-12-06T19:49:15.001Z,31.89
2022-12-06T19:50:14.988Z,22.79
2022-12-06T19:51:14.979Z,23.29
2022-12-06T19:52:14.967Z,17.50
2022-12-06T19:53:14.984Z,20.00
2022-12-06T19:54:14.948Z,19.00
2022-12-06T19:55:14.937Z,43.00
2022-12-06T19:56:14.930Z,35.59
2022-12-06T19:57:14.916Z,28.60
2022-12-06T19:58:14.907Z,33.59
2022-12-06T19:59:14.900Z,30.29
2022-12-06T20:00:18.348Z,23.79
2022-12-06T20:03:14.860Z,22.29
2022-12-06T20:04:14.850Z,16.89
2022-12-06T20:09:14.822Z,27.79
2022-12-06T20:10:14.785Z,34.40
2022-12-06T20:11:14.778Z,48.29
2022-12-06T20:12:14.767Z,47.00
2022-12-06T20:13:14.755Z,37.29
2022-12-06T20:14:14.746Z,30.79
2022-12-06T20:15:14.732Z,34.40
2022-12-06T20:16:14.796Z,38.00
2022-12-06T20:17:14.717Z,30.39
2022-12-06T20:18:14.704Z,40.79
2022-12-06T20:19:14.692Z,49.50
2022-12-06T20:20:14.686Z,24.39
2022-12-06T20:21:14.670Z,25.29
2022-12-06T20:24:14.641Z,19.20
2022-12-06T20:25:14.657Z,20.20
2022-12-06T20:47:14.505Z,25.39
2022-12-06T20:48:14.392Z,43.29
2022-12-06T20:50:14.372Z,29.79
2022-12-06T20:51:14.360Z,17.89
2022-12-06T20:52:14.350Z,18.70
2022-12-06T22:13:13.507Z,17.00
